sensor_id;sensor_type;location;lat;lon;timestamp;temperature;humidity
63017;DHT22;50274;45.640;11.756;2023-06-14T00:02:04;21.60;65.70
63017;DHT22;50274;45.640;11.756;2023-06-14T00:04:33;21.50;65.70
63017;DHT22;50274;45.640;11.756;2023-06-14T00:06:59;21.50;65.80
63017;DHT22;50274;45.640;11.756;2023-06-14T00:09:25;21.50;65.70
63017;DHT22;50274;45.640;11.756;2023-06-14T00:11:50;21.40;65.80
63017;DHT22;50274;45.640;11.756;2023-06-14T00:14:16;21.40;65.80
63017;DHT22;50274;45.640;11.756;2023-06-14T00:16:42;21.40;65.90
63017;DHT22;50274;45.640;11.756;2023-06-14T00:19:09;21.40;65.90
63017;DHT22;50274;45.640;11.756;2023-06-14T00:21:38;21.30;66.00
63017;DHT22;50274;45.640;11.756;2023-06-14T00:24:04;21.40;66.00
63017;DHT22;50274;45.640;11.756;2023-06-14T00:26:30;21.30;66.00
63017;DHT22;50274;45.640;11.756;2023-06-14T00:28:56;21.30;66.10
63017;DHT22;50274;45.640;11.756;2023-06-14T00:31:23;21.30;66.20
63017;DHT22;50274;45.640;11.756;2023-06-14T00:33:49;21.30;66.20
63017;DHT22;50274;45.640;11.756;2023-06-14T00:36:14;21.30;66.30
63017;DHT22;50274;45.640;11.756;2023-06-14T00:38:40;21.30;66.30
63017;DHT22;50274;45.640;11.756;2023-06-14T00:41:06;21.30;66.40
63017;DHT22;50274;45.640;11.756;2023-06-14T00:43:32;21.30;66.50
63017;DHT22;50274;45.640;11.756;2023-06-14T00:46:00;21.20;66.50
63017;DHT22;50274;45.640;11.756;2023-06-14T00:48:26;21.20;66.60
63017;DHT22;50274;45.640;11.756;2023-06-14T00:50:52;21.20;66.60
63017;DHT22;50274;45.640;11.756;2023-06-14T00:53:19;21.20;66.70
63017;DHT22;50274;45.640;11.756;2023-06-14T00:55:48;21.20;66.80
63017;DHT22;50274;45.640;11.756;2023-06-14T00:58:14;21.20;66.90
63017;DHT22;50274;45.640;11.756;2023-06-14T01:00:40;21.10;66.90
63017;DHT22;50274;45.640;11.756;2023-06-14T01:03:06;21.10;67.00
63017;DHT22;50274;45.640;11.756;2023-06-14T01:05:32;21.10;67.10
63017;DHT22;50274;45.640;11.756;2023-06-14T01:08:37;21.10;67.20
63017;DHT22;50274;45.640;11.756;2023-06-14T01:11:16;21.00;67.30
63017;DHT22;50274;45.640;11.756;2023-06-14T01:13:45;21.00;67.40
63017;DHT22;50274;45.640;11.756;2023-06-14T01:16:12;21.00;67.40
63017;DHT22;50274;45.640;11.756;2023-06-14T01:18:38;21.00;67.40
63017;DHT22;50274;45.640;11.756;2023-06-14T01:21:04;21.00;67.50
63017;DHT22;50274;45.640;11.756;2023-06-14T01:23:31;20.90;67.60
63017;DHT22;50274;45.640;11.756;2023-06-14T01:25:59;20.90;67.80
63017;DHT22;50274;45.640;11.756;2023-06-14T01:28:27;20.80;67.90
63017;DHT22;50274;45.640;11.756;2023-06-14T01:30:59;20.80;68.00
63017;DHT22;50274;45.640;11.756;2023-06-14T01:33:27;20.80;68.10
63017;DHT22;50274;45.640;11.756;2023-06-14T01:35:54;20.80;68.10
63017;DHT22;50274;45.640;11.756;2023-06-14T01:38:23;20.70;68.20
63017;DHT22;50274;45.640;11.756;2023-06-14T01:40:50;20.70;68.30
63017;DHT22;50274;45.640;11.756;2023-06-14T01:43:16;20.70;68.40
63017;DHT22;50274;45.640;11.756;2023-06-14T01:45:45;20.70;68.50
63017;DHT22;50274;45.640;11.756;2023-06-14T01:48:11;20.70;68.60
63017;DHT22;50274;45.640;11.756;2023-06-14T01:50:37;20.70;68.60
63017;DHT22;50274;45.640;11.756;2023-06-14T01:53:06;20.60;68.60
63017;DHT22;50274;45.640;11.756;2023-06-14T01:55:32;20.60;68.70
63017;DHT22;50274;45.640;11.756;2023-06-14T01:58:06;20.60;68.60
63017;DHT22;50274;45.640;11.756;2023-06-14T02:00:32;20.60;68.60
63017;DHT22;50274;45.640;11.756;2023-06-14T02:02:58;20.60;68.60
63017;DHT22;50274;45.640;11.756;2023-06-14T02:05:24;20.60;68.70
63017;DHT22;50274;45.640;11.756;2023-06-14T02:07:49;20.60;68.70
63017;DHT22;50274;45.640;11.756;2023-06-14T02:10:16;20.60;68.80
63017;DHT22;50274;45.640;11.756;2023-06-14T02:12:43;20.60;68.80
63017;DHT22;50274;45.640;11.756;2023-06-14T02:15:09;20.60;68.80
63017;DHT22;50274;45.640;11.756;2023-06-14T02:17:42;20.60;68.90
63017;DHT22;50274;45.640;11.756;2023-06-14T02:20:09;20.60;68.90
63017;DHT22;50274;45.640;11.756;2023-06-14T02:22:35;20.50;68.90
63017;DHT22;50274;45.640;11.756;2023-06-14T02:25:00;20.50;69.00
63017;DHT22;50274;45.640;11.756;2023-06-14T02:27:26;20.50;69.00
63017;DHT22;50274;45.640;11.756;2023-06-14T02:29:52;20.50;69.00
63017;DHT22;50274;45.640;11.756;2023-06-14T02:32:18;20.50;69.00
63017;DHT22;50274;45.640;11.756;2023-06-14T02:34:44;20.50;69.00
63017;DHT22;50274;45.640;11.756;2023-06-14T02:37:09;20.40;69.00
63017;DHT22;50274;45.640;11.756;2023-06-14T02:39:36;20.40;68.90
63017;DHT22;50274;45.640;11.756;2023-06-14T02:42:02;20.40;68.90
63017;DHT22;50274;45.640;11.756;2023-06-14T02:44:29;20.40;68.90
63017;DHT22;50274;45.640;11.756;2023-06-14T02:46:55;20.40;69.00
63017;DHT22;50274;45.640;11.756;2023-06-14T02:49:22;20.30;69.10
63017;DHT22;50274;45.640;11.756;2023-06-14T02:51:48;20.30;69.10
63017;DHT22;50274;45.640;11.756;2023-06-14T02:54:14;20.30;69.20
63017;DHT22;50274;45.640;11.756;2023-06-14T02:56:39;20.30;69.20
63017;DHT22;50274;45.640;11.756;2023-06-14T02:59:06;20.30;69.20
63017;DHT22;50274;45.640;11.756;2023-06-14T03:01:33;20.30;69.20
63017;DHT22;50274;45.640;11.756;2023-06-14T03:04:07;20.30;69.20
63017;DHT22;50274;45.640;11.756;2023-06-14T03:06:33;20.20;69.30
63017;DHT22;50274;45.640;11.756;2023-06-14T03:09:00;20.20;69.30
63017;DHT22;50274;45.640;11.756;2023-06-14T03:11:30;20.20;69.30
63017;DHT22;50274;45.640;11.756;2023-06-14T03:13:56;20.20;69.30
63017;DHT22;50274;45.640;11.756;2023-06-14T03:16:23;20.20;69.40
63017;DHT22;50274;45.640;11.756;2023-06-14T03:18:51;20.20;69.40
63017;DHT22;50274;45.640;11.756;2023-06-14T03:21:17;20.20;69.50
63017;DHT22;50274;45.640;11.756;2023-06-14T03:23:43;20.20;69.60
63017;DHT22;50274;45.640;11.756;2023-06-14T03:26:10;20.10;69.60
63017;DHT22;50274;45.640;11.756;2023-06-14T03:28:41;20.20;69.60
63017;DHT22;50274;45.640;11.756;2023-06-14T03:31:07;20.10;69.70
63017;DHT22;50274;45.640;11.756;2023-06-14T03:33:34;20.10;69.80
63017;DHT22;50274;45.640;11.756;2023-06-14T03:36:02;20.10;69.90
63017;DHT22;50274;45.640;11.756;2023-06-14T03:38:28;20.00;70.00
63017;DHT22;50274;45.640;11.756;2023-06-14T03:40:55;20.00;70.10
63017;DHT22;50274;45.640;11.756;2023-06-14T03:43:21;20.00;70.10
63017;DHT22;50274;45.640;11.756;2023-06-14T03:45:47;20.00;70.10
63017;DHT22;50274;45.640;11.756;2023-06-14T03:48:13;20.00;70.10
63017;DHT22;50274;45.640;11.756;2023-06-14T03:50:39;20.00;70.10
63017;DHT22;50274;45.640;11.756;2023-06-14T03:53:05;20.00;70.00
63017;DHT22;50274;45.640;11.756;2023-06-14T03:55:31;20.00;70.00
63017;DHT22;50274;45.640;11.756;2023-06-14T03:57:59;20.00;70.10
63017;DHT22;50274;45.640;11.756;2023-06-14T04:00:25;20.00;70.20
63017;DHT22;50274;45.640;11.756;2023-06-14T04:02:51;20.00;70.20
63017;DHT22;50274;45.640;11.756;2023-06-14T04:05:17;20.00;70.30
63017;DHT22;50274;45.640;11.756;2023-06-14T04:07:45;20.00;70.30
63017;DHT22;50274;45.640;11.756;2023-06-14T04:10:15;20.00;70.30
63017;DHT22;50274;45.640;11.756;2023-06-14T04:12:41;20.10;70.30
63017;DHT22;50274;45.640;11.756;2023-06-14T04:15:07;20.10;70.20
63017;DHT22;50274;45.640;11.756;2023-06-14T04:17:37;20.10;70.10
63017;DHT22;50274;45.640;11.756;2023-06-14T04:20:03;20.10;70.10
63017;DHT22;50274;45.640;11.756;2023-06-14T04:22:31;20.10;70.10
63017;DHT22;50274;45.640;11.756;2023-06-14T04:25:00;20.10;70.00
63017;DHT22;50274;45.640;11.756;2023-06-14T04:27:26;20.10;70.00
63017;DHT22;50274;45.640;11.756;2023-06-14T04:29:54;20.10;70.00
63017;DHT22;50274;45.640;11.756;2023-06-14T04:32:26;20.20;69.90
63017;DHT22;50274;45.640;11.756;2023-06-14T04:34:55;20.20;69.80
63017;DHT22;50274;45.640;11.756;2023-06-14T04:37:24;20.20;69.70
63017;DHT22;50274;45.640;11.756;2023-06-14T04:39:55;20.20;69.70
63017;DHT22;50274;45.640;11.756;2023-06-14T04:42:22;20.30;69.60
63017;DHT22;50274;45.640;11.756;2023-06-14T04:44:50;20.30;69.60
63017;DHT22;50274;45.640;11.756;2023-06-14T04:47:17;20.30;69.60
63017;DHT22;50274;45.640;11.756;2023-06-14T04:49:43;20.30;69.60
63017;DHT22;50274;45.640;11.756;2023-06-14T04:52:10;20.30;69.60
63017;DHT22;50274;45.640;11.756;2023-06-14T04:54:41;20.30;69.60
63017;DHT22;50274;45.640;11.756;2023-06-14T04:57:09;20.40;69.60
63017;DHT22;50274;45.640;11.756;2023-06-14T04:59:40;20.40;69.50
63017;DHT22;50274;45.640;11.756;2023-06-14T05:02:06;20.50;69.60
63017;DHT22;50274;45.640;11.756;2023-06-14T05:04:32;20.50;69.50
63017;DHT22;50274;45.640;11.756;2023-06-14T05:06:59;20.60;69.50
63017;DHT22;50274;45.640;11.756;2023-06-14T05:09:25;20.60;69.50
63017;DHT22;50274;45.640;11.756;2023-06-14T05:11:51;20.70;69.40
63017;DHT22;50274;45.640;11.756;2023-06-14T05:14:17;20.80;69.40
63017;DHT22;50274;45.640;11.756;2023-06-14T05:16:44;20.80;69.40
63017;DHT22;50274;45.640;11.756;2023-06-14T05:19:09;20.90;69.40
63017;DHT22;50274;45.640;11.756;2023-06-14T05:21:36;20.90;69.30
63017;DHT22;50274;45.640;11.756;2023-06-14T05:24:03;21.00;69.30
63017;DHT22;50274;45.640;11.756;2023-06-14T05:26:29;21.00;69.30
63017;DHT22;50274;45.640;11.756;2023-06-14T05:28:56;21.10;69.30
63017;DHT22;50274;45.640;11.756;2023-06-14T05:31:23;21.10;69.40
63017;DHT22;50274;45.640;11.756;2023-06-14T05:33:50;21.10;69.40
63017;DHT22;50274;45.640;11.756;2023-06-14T05:36:16;21.10;69.40
63017;DHT22;50274;45.640;11.756;2023-06-14T05:38:42;21.20;69.40
63017;DHT22;50274;45.640;11.756;2023-06-14T05:41:08;21.20;69.40
63017;DHT22;50274;45.640;11.756;2023-06-14T05:43:34;21.20;69.30
63017;DHT22;50274;45.640;11.756;2023-06-14T05:46:00;21.30;69.30
63017;DHT22;50274;45.640;11.756;2023-06-14T05:48:26;21.40;69.20
63017;DHT22;50274;45.640;11.756;2023-06-14T05:50:52;21.50;69.00
63017;DHT22;50274;45.640;11.756;2023-06-14T05:53:17;21.60;69.00
63017;DHT22;50274;45.640;11.756;2023-06-14T05:55:43;21.70;68.80
63017;DHT22;50274;45.640;11.756;2023-06-14T05:58:09;21.80;68.70
63017;DHT22;50274;45.640;11.756;2023-06-14T06:00:36;21.90;68.40
63017;DHT22;50274;45.640;11.756;2023-06-14T06:03:02;22.10;68.20
63017;DHT22;50274;45.640;11.756;2023-06-14T06:05:28;22.10;68.00
63017;DHT22;50274;45.640;11.756;2023-06-14T06:07:53;22.30;68.10
63017;DHT22;50274;45.640;11.756;2023-06-14T06:10:19;22.40;67.70
63017;DHT22;50274;45.640;11.756;2023-06-14T06:12:45;22.60;67.20
63017;DHT22;50274;45.640;11.756;2023-06-14T06:15:12;22.70;66.50
63017;DHT22;50274;45.640;11.756;2023-06-14T06:17:47;22.80;66.00
63017;DHT22;50274;45.640;11.756;2023-06-14T06:20:13;22.90;65.20
63017;DHT22;50274;45.640;11.756;2023-06-14T06:22:39;23.00;64.30
63017;DHT22;50274;45.640;11.756;2023-06-14T06:25:05;23.10;63.70
63017;DHT22;50274;45.640;11.756;2023-06-14T06:27:32;23.30;63.20
63017;DHT22;50274;45.640;11.756;2023-06-14T06:29:58;23.30;62.90
63017;DHT22;50274;45.640;11.756;2023-06-14T06:32:24;23.40;62.40
63017;DHT22;50274;45.640;11.756;2023-06-14T06:34:50;23.40;62.10
63017;DHT22;50274;45.640;11.756;2023-06-14T06:37:16;23.50;62.20
63017;DHT22;50274;45.640;11.756;2023-06-14T06:39:42;23.60;61.70
63017;DHT22;50274;45.640;11.756;2023-06-14T06:42:08;23.80;61.10
63017;DHT22;50274;45.640;11.756;2023-06-14T06:44:34;23.90;60.80
63017;DHT22;50274;45.640;11.756;2023-06-14T06:46:59;24.00;59.80
63017;DHT22;50274;45.640;11.756;2023-06-14T06:49:25;24.10;58.90
63017;DHT22;50274;45.640;11.756;2023-06-14T06:52:05;24.10;58.50
63017;DHT22;50274;45.640;11.756;2023-06-14T06:54:31;24.20;58.10
63017;DHT22;50274;45.640;11.756;2023-06-14T06:56:58;24.20;56.90
63017;DHT22;50274;45.640;11.756;2023-06-14T06:59:24;24.30;57.00
63017;DHT22;50274;45.640;11.756;2023-06-14T07:01:50;24.40;57.00
63017;DHT22;50274;45.640;11.756;2023-06-14T07:04:16;24.50;57.00
63017;DHT22;50274;45.640;11.756;2023-06-14T07:06:42;24.60;56.60
63017;DHT22;50274;45.640;11.756;2023-06-14T07:09:08;24.70;55.50
63017;DHT22;50274;45.640;11.756;2023-06-14T07:11:39;24.80;54.80
63017;DHT22;50274;45.640;11.756;2023-06-14T07:14:05;25.00;54.20
63017;DHT22;50274;45.640;11.756;2023-06-14T07:16:31;25.10;53.70
63017;DHT22;50274;45.640;11.756;2023-06-14T07:18:57;25.20;53.40
63017;DHT22;50274;45.640;11.756;2023-06-14T07:21:22;25.30;53.00
63017;DHT22;50274;45.640;11.756;2023-06-14T07:23:48;25.40;52.90
63017;DHT22;50274;45.640;11.756;2023-06-14T07:26:14;25.40;53.20
63017;DHT22;50274;45.640;11.756;2023-06-14T07:28:40;25.30;53.40
63017;DHT22;50274;45.640;11.756;2023-06-14T07:31:06;25.30;53.40
63017;DHT22;50274;45.640;11.756;2023-06-14T07:33:32;25.30;53.90
63017;DHT22;50274;45.640;11.756;2023-06-14T07:35:58;25.30;53.80
63017;DHT22;50274;45.640;11.756;2023-06-14T07:38:23;25.30;54.00
63017;DHT22;50274;45.640;11.756;2023-06-14T07:40:49;25.30;54.10
63017;DHT22;50274;45.640;11.756;2023-06-14T07:43:15;25.30;54.40
63017;DHT22;50274;45.640;11.756;2023-06-14T07:45:41;25.30;54.60
63017;DHT22;50274;45.640;11.756;2023-06-14T07:48:06;25.30;54.90
63017;DHT22;50274;45.640;11.756;2023-06-14T07:50:32;25.20;55.10
63017;DHT22;50274;45.640;11.756;2023-06-14T07:52:58;25.20;55.00
63017;DHT22;50274;45.640;11.756;2023-06-14T07:55:24;25.20;54.60
63017;DHT22;50274;45.640;11.756;2023-06-14T07:57:51;25.20;54.40
63017;DHT22;50274;45.640;11.756;2023-06-14T08:00:17;25.20;53.90
63017;DHT22;50274;45.640;11.756;2023-06-14T08:02:44;25.20;53.70
63017;DHT22;50274;45.640;11.756;2023-06-14T08:05:11;25.30;53.30
63017;DHT22;50274;45.640;11.756;2023-06-14T08:07:38;25.40;53.30
63017;DHT22;50274;45.640;11.756;2023-06-14T08:10:05;25.40;53.70
63017;DHT22;50274;45.640;11.756;2023-06-14T08:12:32;25.50;54.30
63017;DHT22;50274;45.640;11.756;2023-06-14T08:14:58;25.60;54.20
63017;DHT22;50274;45.640;11.756;2023-06-14T08:17:23;25.70;54.20
63017;DHT22;50274;45.640;11.756;2023-06-14T08:19:50;25.70;53.80
63017;DHT22;50274;45.640;11.756;2023-06-14T08:22:16;25.70;54.00
63017;DHT22;50274;45.640;11.756;2023-06-14T08:24:43;25.70;53.80
63017;DHT22;50274;45.640;11.756;2023-06-14T08:27:10;25.80;54.00
63017;DHT22;50274;45.640;11.756;2023-06-14T08:29:35;25.90;53.60
63017;DHT22;50274;45.640;11.756;2023-06-14T08:32:01;26.00;53.00
63017;DHT22;50274;45.640;11.756;2023-06-14T08:34:27;26.10;53.20
63017;DHT22;50274;45.640;11.756;2023-06-14T08:36:53;26.30;52.60
63017;DHT22;50274;45.640;11.756;2023-06-14T08:39:19;26.50;51.40
63017;DHT22;50274;45.640;11.756;2023-06-14T08:41:46;26.60;51.50
63017;DHT22;50274;45.640;11.756;2023-06-14T08:44:16;26.80;51.40
63017;DHT22;50274;45.640;11.756;2023-06-14T08:46:43;26.80;49.80
63017;DHT22;50274;45.640;11.756;2023-06-14T08:49:11;26.80;49.00
63017;DHT22;50274;45.640;11.756;2023-06-14T08:51:38;26.80;49.20
63017;DHT22;50274;45.640;11.756;2023-06-14T08:54:06;26.80;49.30
63017;DHT22;50274;45.640;11.756;2023-06-14T08:56:32;26.70;49.40
63017;DHT22;50274;45.640;11.756;2023-06-14T08:58:59;26.60;49.70
63017;DHT22;50274;45.640;11.756;2023-06-14T09:01:28;26.60;50.10
63017;DHT22;50274;45.640;11.756;2023-06-14T09:03:54;26.50;50.20
63017;DHT22;50274;45.640;11.756;2023-06-14T09:06:23;26.40;50.70
63017;DHT22;50274;45.640;11.756;2023-06-14T09:08:50;26.30;50.80
63017;DHT22;50274;45.640;11.756;2023-06-14T09:11:17;26.30;50.80
63017;DHT22;50274;45.640;11.756;2023-06-14T09:13:47;26.30;50.50
63017;DHT22;50274;45.640;11.756;2023-06-14T09:16:13;26.20;50.20
63017;DHT22;50274;45.640;11.756;2023-06-14T09:18:45;26.10;50.30
63017;DHT22;50274;45.640;11.756;2023-06-14T09:21:14;26.10;50.60
63017;DHT22;50274;45.640;11.756;2023-06-14T09:23:42;26.10;50.50
63017;DHT22;50274;45.640;11.756;2023-06-14T09:26:15;26.00;50.80
63017;DHT22;50274;45.640;11.756;2023-06-14T09:28:43;26.00;50.40
63017;DHT22;50274;45.640;11.756;2023-06-14T09:31:12;26.00;50.90
63017;DHT22;50274;45.640;11.756;2023-06-14T09:33:41;26.00;51.10
63017;DHT22;50274;45.640;11.756;2023-06-14T09:36:11;26.10;51.10
63017;DHT22;50274;45.640;11.756;2023-06-14T09:38:40;26.30;51.30
63017;DHT22;50274;45.640;11.756;2023-06-14T09:41:06;26.50;51.40
63017;DHT22;50274;45.640;11.756;2023-06-14T09:43:34;26.60;51.60
63017;DHT22;50274;45.640;11.756;2023-06-14T09:46:03;26.60;51.40
63017;DHT22;50274;45.640;11.756;2023-06-14T09:48:30;26.70;51.10
63017;DHT22;50274;45.640;11.756;2023-06-14T09:50:57;26.60;51.00
63017;DHT22;50274;45.640;11.756;2023-06-14T09:53:24;26.60;50.10
63017;DHT22;50274;45.640;11.756;2023-06-14T09:55:52;26.50;50.00
63017;DHT22;50274;45.640;11.756;2023-06-14T09:58:20;26.40;50.50
63017;DHT22;50274;45.640;11.756;2023-06-14T10:00:50;26.40;50.50
63017;DHT22;50274;45.640;11.756;2023-06-14T10:03:24;26.30;50.80
63017;DHT22;50274;45.640;11.756;2023-06-14T10:05:51;26.30;50.80
63017;DHT22;50274;45.640;11.756;2023-06-14T10:08:24;26.20;50.80
63017;DHT22;50274;45.640;11.756;2023-06-14T10:10:51;26.20;50.70
63017;DHT22;50274;45.640;11.756;2023-06-14T10:13:18;26.20;51.20
63017;DHT22;50274;45.640;11.756;2023-06-14T10:21:15;26.10;51.00
63017;DHT22;50274;45.640;11.756;2023-06-14T10:23:43;26.10;51.00
63017;DHT22;50274;45.640;11.756;2023-06-14T10:26:21;26.10;50.60
63017;DHT22;50274;45.640;11.756;2023-06-14T10:29:09;26.10;50.50
63017;DHT22;50274;45.640;11.756;2023-06-14T10:31:46;26.20;50.50
63017;DHT22;50274;45.640;11.756;2023-06-14T10:34:20;26.20;50.90
63017;DHT22;50274;45.640;11.756;2023-06-14T10:37:13;26.30;50.80
63017;DHT22;50274;45.640;11.756;2023-06-14T10:39:43;26.40;51.10
63017;DHT22;50274;45.640;11.756;2023-06-14T10:42:11;26.40;50.60
63017;DHT22;50274;45.640;11.756;2023-06-14T10:44:53;26.40;50.80
63017;DHT22;50274;45.640;11.756;2023-06-14T10:52:28;26.70;51.00
63017;DHT22;50274;45.640;11.756;2023-06-14T10:55:10;26.70;50.40
63017;DHT22;50274;45.640;11.756;2023-06-14T10:57:42;26.90;50.30
63017;DHT22;50274;45.640;11.756;2023-06-14T11:00:09;27.10;49.20
63017;DHT22;50274;45.640;11.756;2023-06-14T11:02:59;27.40;48.70
63017;DHT22;50274;45.640;11.756;2023-06-14T11:05:30;27.70;47.30
63017;DHT22;50274;45.640;11.756;2023-06-14T11:10:43;28.00;45.80
63017;DHT22;50274;45.640;11.756;2023-06-14T11:13:11;28.30;45.00
63017;DHT22;50274;45.640;11.756;2023-06-14T11:15:38;28.40;44.60
63017;DHT22;50274;45.640;11.756;2023-06-14T11:18:06;28.40;44.00
63017;DHT22;50274;45.640;11.756;2023-06-14T11:20:34;28.50;44.20
63017;DHT22;50274;45.640;11.756;2023-06-14T11:23:01;28.70;44.60
63017;DHT22;50274;45.640;11.756;2023-06-14T11:25:27;28.90;44.20
63017;DHT22;50274;45.640;11.756;2023-06-14T11:27:54;29.10;44.10
63017;DHT22;50274;45.640;11.756;2023-06-14T11:30:21;29.20;43.80
63017;DHT22;50274;45.640;11.756;2023-06-14T11:32:51;29.10;43.70
63017;DHT22;50274;45.640;11.756;2023-06-14T11:35:17;29.00;43.80
63017;DHT22;50274;45.640;11.756;2023-06-14T11:37:44;28.80;43.60
63017;DHT22;50274;45.640;11.756;2023-06-14T11:40:11;28.80;44.20
63017;DHT22;50274;45.640;11.756;2023-06-14T11:42:40;28.80;44.00
63017;DHT22;50274;45.640;11.756;2023-06-14T11:45:12;29.10;44.00
63017;DHT22;50274;45.640;11.756;2023-06-14T11:47:39;29.20;42.90
63017;DHT22;50274;45.640;11.756;2023-06-14T11:50:07;29.20;42.60
63017;DHT22;50274;45.640;11.756;2023-06-14T11:52:34;29.20;43.00
63017;DHT22;50274;45.640;11.756;2023-06-14T11:55:01;29.30;43.10
63017;DHT22;50274;45.640;11.756;2023-06-14T11:57:30;29.30;42.10
63017;DHT22;50274;45.640;11.756;2023-06-14T11:59:59;29.30;42.30
63017;DHT22;50274;45.640;11.756;2023-06-14T12:02:25;29.60;42.60
63017;DHT22;50274;45.640;11.756;2023-06-14T12:04:53;29.60;41.10
63017;DHT22;50274;45.640;11.756;2023-06-14T12:07:19;29.60;41.40
63017;DHT22;50274;45.640;11.756;2023-06-14T12:12:21;29.50;42.30
63017;DHT22;50274;45.640;11.756;2023-06-14T12:14:49;29.60;42.50
63017;DHT22;50274;45.640;11.756;2023-06-14T12:17:16;29.80;41.70
63017;DHT22;50274;45.640;11.756;2023-06-14T12:19:46;30.10;41.50
63017;DHT22;50274;45.640;11.756;2023-06-14T12:22:13;30.30;41.10
63017;DHT22;50274;45.640;11.756;2023-06-14T12:24:42;30.40;39.90
63017;DHT22;50274;45.640;11.756;2023-06-14T12:27:08;30.40;39.70
63017;DHT22;50274;45.640;11.756;2023-06-14T12:29:33;30.40;39.50
63017;DHT22;50274;45.640;11.756;2023-06-14T12:32:00;30.40;39.10
63017;DHT22;50274;45.640;11.756;2023-06-14T12:34:26;30.40;39.10
63017;DHT22;50274;45.640;11.756;2023-06-14T12:36:53;30.60;39.40
63017;DHT22;50274;45.640;11.756;2023-06-14T12:39:20;30.80;39.40
63017;DHT22;50274;45.640;11.756;2023-06-14T12:41:46;31.00;38.90
63017;DHT22;50274;45.640;11.756;2023-06-14T12:44:13;31.10;38.60
63017;DHT22;50274;45.640;11.756;2023-06-14T12:46:39;31.10;38.70
63017;DHT22;50274;45.640;11.756;2023-06-14T12:49:07;31.10;38.20
63017;DHT22;50274;45.640;11.756;2023-06-14T12:51:33;31.10;37.30
63017;DHT22;50274;45.640;11.756;2023-06-14T12:53:59;31.10;38.00
63017;DHT22;50274;45.640;11.756;2023-06-14T12:56:24;31.10;38.40
63017;DHT22;50274;45.640;11.756;2023-06-14T12:58:51;31.10;38.10
63017;DHT22;50274;45.640;11.756;2023-06-14T13:01:18;31.20;38.00
63017;DHT22;50274;45.640;11.756;2023-06-14T13:03:44;31.30;38.30
63017;DHT22;50274;45.640;11.756;2023-06-14T13:06:10;31.40;38.40
63017;DHT22;50274;45.640;11.756;2023-06-14T13:08:36;31.20;36.80
63017;DHT22;50274;45.640;11.756;2023-06-14T13:11:02;31.10;36.60
63017;DHT22;50274;45.640;11.756;2023-06-14T13:13:28;31.20;37.00
63017;DHT22;50274;45.640;11.756;2023-06-14T13:15:53;31.30;37.60
63017;DHT22;50274;45.640;11.756;2023-06-14T13:18:19;31.40;37.40
63017;DHT22;50274;45.640;11.756;2023-06-14T13:20:46;31.40;37.30
63017;DHT22;50274;45.640;11.756;2023-06-14T13:23:12;31.50;37.00
63017;DHT22;50274;45.640;11.756;2023-06-14T13:25:39;31.60;37.30
63017;DHT22;50274;45.640;11.756;2023-06-14T13:28:05;31.60;36.60
63017;DHT22;50274;45.640;11.756;2023-06-14T13:30:32;31.60;36.20
63017;DHT22;50274;45.640;11.756;2023-06-14T13:32:59;31.70;37.00
63017;DHT22;50274;45.640;11.756;2023-06-14T13:35:27;31.60;36.10
63017;DHT22;50274;45.640;11.756;2023-06-14T13:37:53;31.40;36.10
63017;DHT22;50274;45.640;11.756;2023-06-14T13:40:19;31.20;37.20
63017;DHT22;50274;45.640;11.756;2023-06-14T13:42:46;31.00;37.30
63017;DHT22;50274;45.640;11.756;2023-06-14T13:45:12;31.10;37.70
63017;DHT22;50274;45.640;11.756;2023-06-14T13:47:38;31.20;37.90
63017;DHT22;50274;45.640;11.756;2023-06-14T13:50:05;31.30;38.20
63017;DHT22;50274;45.640;11.756;2023-06-14T13:52:31;31.40;37.70
63017;DHT22;50274;45.640;11.756;2023-06-14T13:54:57;31.30;36.50
63017;DHT22;50274;45.640;11.756;2023-06-14T13:57:23;31.40;36.60
63017;DHT22;50274;45.640;11.756;2023-06-14T13:59:49;31.20;34.70
63017;DHT22;50274;45.640;11.756;2023-06-14T14:02:15;31.10;35.20
63017;DHT22;50274;45.640;11.756;2023-06-14T14:04:41;31.00;35.20
63017;DHT22;50274;45.640;11.756;2023-06-14T14:07:07;30.90;36.20
63017;DHT22;50274;45.640;11.756;2023-06-14T14:09:34;30.70;35.70
63017;DHT22;50274;45.640;11.756;2023-06-14T14:12:00;30.60;36.70
63017;DHT22;50274;45.640;11.756;2023-06-14T14:14:28;30.50;36.70
63017;DHT22;50274;45.640;11.756;2023-06-14T14:16:54;30.40;37.20
63017;DHT22;50274;45.640;11.756;2023-06-14T14:19:23;30.30;36.80
63017;DHT22;50274;45.640;11.756;2023-06-14T14:21:49;30.10;36.80
63017;DHT22;50274;45.640;11.756;2023-06-14T14:24:15;29.90;36.90
63017;DHT22;50274;45.640;11.756;2023-06-14T14:26:42;29.60;37.00
63017;DHT22;50274;45.640;11.756;2023-06-14T14:29:08;29.40;37.90
63017;DHT22;50274;45.640;11.756;2023-06-14T14:31:37;29.40;37.80
63017;DHT22;50274;45.640;11.756;2023-06-14T14:34:03;29.40;37.40
63017;DHT22;50274;45.640;11.756;2023-06-14T14:36:28;29.40;37.40
63017;DHT22;50274;45.640;11.756;2023-06-14T14:38:54;29.50;38.00
63017;DHT22;50274;45.640;11.756;2023-06-14T14:41:20;29.70;38.70
63017;DHT22;50274;45.640;11.756;2023-06-14T14:43:46;29.90;39.00
63017;DHT22;50274;45.640;11.756;2023-06-14T14:46:12;30.00;38.70
63017;DHT22;50274;45.640;11.756;2023-06-14T14:48:38;30.00;37.60
63017;DHT22;50274;45.640;11.756;2023-06-14T14:51:13;30.00;37.70
63017;DHT22;50274;45.640;11.756;2023-06-14T14:53:38;30.00;37.70
63017;DHT22;50274;45.640;11.756;2023-06-14T14:56:04;29.90;37.60
63017;DHT22;50274;45.640;11.756;2023-06-14T14:58:30;29.90;37.90
63017;DHT22;50274;45.640;11.756;2023-06-14T15:00:56;29.90;38.50
63017;DHT22;50274;45.640;11.756;2023-06-14T15:03:22;29.90;38.10
63017;DHT22;50274;45.640;11.756;2023-06-14T15:05:51;29.80;38.50
63017;DHT22;50274;45.640;11.756;2023-06-14T15:08:17;29.70;38.90
63017;DHT22;50274;45.640;11.756;2023-06-14T15:10:42;29.80;38.90
63017;DHT22;50274;45.640;11.756;2023-06-14T15:13:09;29.70;39.00
63017;DHT22;50274;45.640;11.756;2023-06-14T15:15:36;29.60;38.80
63017;DHT22;50274;45.640;11.756;2023-06-14T15:18:02;29.50;39.10
63017;DHT22;50274;45.640;11.756;2023-06-14T15:20:28;29.50;39.60
63017;DHT22;50274;45.640;11.756;2023-06-14T15:22:54;29.40;39.90
63017;DHT22;50274;45.640;11.756;2023-06-14T15:25:29;29.20;40.10
63017;DHT22;50274;45.640;11.756;2023-06-14T15:27:55;29.20;40.90
63017;DHT22;50274;45.640;11.756;2023-06-14T15:30:22;29.10;41.30
63017;DHT22;50274;45.640;11.756;2023-06-14T15:32:48;29.00;40.90